Decoded Metar for SBEG (MANAUS in BRAZIL) (IATA:MAO) | Meteo·Mobile Aviation Weather
aviador You're here:

SBEG Decoded Metar

MANAUS in BRAZIL
Report Time2018-09-26 04:00:00
UTC Time2018-09-26 04:44:49
Flight Rules vfr VFR
Wind290° at 02 kt
W.Decomp.*RWY 28: 1.8 kt HW 0.8 kt RCW
W.Rank290° ranks 35
Current wind is below 290° avg. (3.3)
Visibility9999 m
Phenomena:N/A
Clouds:Few 015 Hf
Expected CloudBase > 400 ft AGL from Temp-Dew spread
CeilingNone
Temp26°C (ISA +11)
Dew Point25°C (94% RH)
QNH1010 hPa
Density Alt1,795 ft
Elevation7 ft
Report Wrong Elevation
Raw Report
METAR SBEG 260400Z 29002KT 9999 FEW015 26/25 Q1010=

Extra information for SBEG:More info

Metar Taf Metar & Taf Last 4 Metars F.Rules Stats Wind Profile Meteogram Temp Stats Airport Information Weather charts Add Link Nearby VenuesMetar ALERT Operation Metar Decoded Social comments